createdAt,value
2019-03-17T00:01:57.912Z,4.17
2019-03-17T00:05:29.647Z,3.27
2019-03-17T00:08:14.878Z,3.62
2019-03-17T00:10:44.182Z,3.40
2019-03-17T00:13:24.016Z,3.02
2019-03-17T00:15:52.394Z,2.15
2019-03-17T00:18:22.009Z,2.52
2019-03-17T00:20:54.537Z,3.05
2019-03-17T00:23:32.578Z,2.40
2019-03-17T00:26:04.214Z,2.80
2019-03-17T00:28:44.487Z,2.72
2019-03-17T00:31:24.394Z,2.60
2019-03-17T00:33:53.569Z,2.37
2019-03-17T00:36:24.539Z,2.62
2019-03-17T00:39:02.585Z,2.75
2019-03-17T00:41:32.160Z,2.98
2019-03-17T00:44:04.848Z,2.77
2019-03-17T00:46:41.670Z,2.72
2019-03-17T00:49:15.599Z,2.77
2019-03-17T00:51:55.960Z,3.00
2019-03-17T00:54:28.498Z,3.15
2019-03-17T00:56:58.210Z,3.15
2019-03-17T00:59:38.748Z,2.92
2019-03-17T01:27:19.765Z,3.45
2019-03-17T01:29:19.020Z,3.37
2019-03-17T01:31:48.070Z,4.35
2019-03-17T01:34:17.181Z,3.30
2019-03-17T01:36:46.382Z,3.65
2019-03-17T01:39:15.577Z,3.62
2019-03-17T01:41:44.793Z,3.05
2019-03-17T01:50:49.047Z,3.77
2019-03-17T01:53:18.227Z,3.02
2019-03-17T01:55:47.485Z,3.42
2019-03-17T01:58:22.947Z,4.03
2019-03-17T02:03:44.572Z,4.05
2019-03-17T02:06:16.057Z,4.55
2019-03-17T02:08:45.313Z,4.03
2019-03-17T02:11:14.420Z,3.22
2019-03-17T02:13:43.562Z,3.80
2019-03-17T02:16:12.666Z,3.80
2019-03-17T02:18:41.780Z,3.90
2019-03-17T02:21:11.868Z,4.53
2019-03-17T02:23:41.042Z,4.53
2019-03-17T02:26:10.141Z,4.10
2019-03-17T02:28:39.509Z,4.20
2019-03-17T02:31:08.562Z,3.62
2019-03-17T02:33:37.550Z,3.55
2019-03-17T02:36:06.640Z,3.52
2019-03-17T02:38:35.728Z,4.35
2019-03-17T02:41:05.013Z,4.75
2019-03-17T02:43:34.149Z,3.95
2019-03-17T02:46:03.300Z,3.70
2019-03-17T02:48:32.464Z,3.50
2019-03-17T02:51:01.570Z,4.03
2019-03-17T02:53:30.606Z,4.22
2019-03-17T02:55:59.751Z,4.35
2019-03-17T02:58:28.758Z,3.83
2019-03-17T03:00:57.964Z,3.90
2019-03-17T03:03:27.046Z,3.58
2019-03-17T03:05:57.279Z,3.80
2019-03-17T03:08:26.483Z,3.95
2019-03-17T03:10:55.626Z,5.00
2019-03-17T03:13:24.680Z,4.15
2019-03-17T03:15:53.794Z,5.12
2019-03-17T03:18:23.072Z,4.47
2019-03-17T03:20:52.243Z,4.45
2019-03-17T03:23:23.137Z,4.90
2019-03-17T03:25:52.161Z,5.03
2019-03-17T03:28:21.185Z,4.92
2019-03-17T03:30:51.651Z,4.65
2019-03-17T03:33:20.960Z,3.77
2019-03-17T03:35:49.983Z,3.02
2019-03-17T03:38:19.049Z,2.67
2019-03-17T03:40:48.392Z,1.85
2019-03-17T03:43:17.645Z,1.50
2019-03-17T03:45:46.745Z,1.20
2019-03-17T03:48:15.684Z,0.68
2019-03-17T03:50:44.762Z,0.75
2019-03-17T03:53:13.814Z,0.45
2019-03-17T03:55:42.817Z,0.40
2019-03-17T03:58:11.909Z,0.60
2019-03-17T04:00:40.943Z,0.30
2019-03-17T04:03:09.934Z,0.68
2019-03-17T04:05:38.986Z,0.57
2019-03-17T04:08:08.027Z,0.70
2019-03-17T04:10:37.194Z,0.80
2019-03-17T04:13:07.325Z,0.70
2019-03-17T04:15:36.201Z,0.88
2019-03-17T04:18:05.324Z,0.68
2019-03-17T04:20:34.415Z,1.12
2019-03-17T04:23:03.538Z,0.60
2019-03-17T04:25:32.444Z,0.57
2019-03-17T04:28:01.346Z,0.68
2019-03-17T04:30:30.364Z,0.57
2019-03-17T04:32:59.374Z,0.95
2019-03-17T04:35:28.398Z,0.82
2019-03-17T04:37:57.442Z,0.60
2019-03-17T04:40:26.484Z,0.95
2019-03-17T04:42:55.539Z,0.50
2019-03-17T04:45:24.527Z,0.80
2019-03-17T04:47:53.649Z,0.80
2019-03-17T04:50:22.652Z,0.60
2019-03-17T04:52:51.602Z,0.55
2019-03-17T04:55:20.676Z,0.47
2019-03-17T04:57:49.733Z,0.30
2019-03-17T05:00:18.845Z,0.30
2019-03-17T05:02:47.801Z,0.40
2019-03-17T05:05:16.945Z,0.55
2019-03-17T05:07:46.211Z,0.70
2019-03-17T05:10:15.272Z,0.70
2019-03-17T05:12:44.301Z,0.37
2019-03-17T05:15:13.359Z,0.65
2019-03-17T05:17:42.418Z,0.40
2019-03-17T05:20:11.653Z,0.62
2019-03-17T05:22:40.667Z,0.60
2019-03-17T05:25:09.834Z,0.45
2019-03-17T05:27:38.909Z,0.65
2019-03-17T05:30:08.264Z,0.62
2019-03-17T05:32:37.273Z,0.80
2019-03-17T05:35:06.429Z,0.57
2019-03-17T05:37:35.481Z,0.50
2019-03-17T05:40:04.908Z,0.60
2019-03-17T05:42:36.360Z,1.12
2019-03-17T05:45:05.685Z,1.00
2019-03-17T05:47:34.872Z,0.90
2019-03-17T05:50:04.418Z,1.05
2019-03-17T05:52:33.461Z,1.20
2019-03-17T05:55:02.798Z,1.35
2019-03-17T05:57:31.876Z,1.22
2019-03-17T06:00:00.998Z,0.88
2019-03-17T06:02:30.039Z,1.20
2019-03-17T06:04:59.094Z,1.02
2019-03-17T06:07:28.091Z,1.00
2019-03-17T06:09:57.159Z,1.10
2019-03-17T06:12:26.183Z,1.55
2019-03-17T06:14:55.167Z,1.50
2019-03-17T06:17:24.377Z,1.50
2019-03-17T06:19:53.477Z,1.27
2019-03-17T06:22:22.579Z,1.67
2019-03-17T06:24:51.700Z,1.27
2019-03-17T06:27:20.780Z,2.08
2019-03-17T06:29:49.816Z,1.82
2019-03-17T06:32:19.278Z,1.50
2019-03-17T06:34:48.350Z,1.67
2019-03-17T06:37:17.353Z,2.20
2019-03-17T06:39:46.465Z,1.40
2019-03-17T06:42:15.597Z,1.77
2019-03-17T06:44:44.753Z,1.57
2019-03-17T06:47:13.992Z,1.32
2019-03-17T06:49:43.288Z,1.52
2019-03-17T06:52:13.773Z,1.22
2019-03-17T06:54:42.994Z,1.32
2019-03-17T06:57:28.265Z,1.47
2019-03-17T06:59:57.619Z,1.72
2019-03-17T07:02:27.196Z,1.82
2019-03-17T07:04:58.079Z,1.40
2019-03-17T07:07:27.780Z,2.17
2019-03-17T07:09:57.042Z,1.60
2019-03-17T07:12:26.870Z,1.20
2019-03-17T07:14:57.374Z,1.27
2019-03-17T07:17:26.794Z,1.45
2019-03-17T07:19:57.806Z,1.40
2019-03-17T07:22:27.688Z,1.02
2019-03-17T07:24:57.748Z,0.95
2019-03-17T07:27:27.158Z,1.42
2019-03-17T07:29:57.494Z,1.40
2019-03-17T07:32:27.022Z,1.05
2019-03-17T07:34:56.480Z,1.45
2019-03-17T07:37:25.868Z,0.80
2019-03-17T07:39:55.075Z,1.20
2019-03-17T07:42:24.413Z,1.15
2019-03-17T07:44:53.481Z,0.72
2019-03-17T07:47:23.265Z,0.98
2019-03-17T07:52:50.596Z,0.82
2019-03-17T07:55:19.760Z,1.00
2019-03-17T07:57:49.490Z,1.00
2019-03-17T08:00:30.964Z,1.20
2019-03-17T08:02:49.834Z,0.68
2019-03-17T08:05:19.064Z,1.02
2019-03-17T08:07:48.899Z,1.60
2019-03-17T08:10:18.863Z,1.02
2019-03-17T08:12:48.340Z,0.90
2019-03-17T08:15:17.416Z,1.10
2019-03-17T08:17:46.492Z,0.95
2019-03-17T08:20:15.672Z,1.22
2019-03-17T08:22:44.745Z,1.17
2019-03-17T08:25:13.835Z,1.87
2019-03-17T08:27:42.970Z,1.30
2019-03-17T08:30:12.188Z,1.25
2019-03-17T08:32:41.726Z,1.12
2019-03-17T08:35:11.147Z,1.17
2019-03-17T08:37:40.387Z,1.42
2019-03-17T08:40:10.972Z,1.25
2019-03-17T08:42:40.275Z,1.40
2019-03-17T08:45:10.965Z,1.30
2019-03-17T08:47:40.461Z,1.50
2019-03-17T08:50:10.841Z,1.22
2019-03-17T08:52:43.427Z,1.22
2019-03-17T08:55:12.755Z,1.10
2019-03-17T08:57:44.244Z,1.25
2019-03-17T09:00:18.020Z,1.30
2019-03-17T09:02:47.662Z,1.42
2019-03-17T09:05:19.411Z,1.62
2019-03-17T09:07:48.619Z,1.22
2019-03-17T09:10:19.400Z,1.50
2019-03-17T09:12:51.275Z,1.75
2019-03-17T09:15:25.340Z,1.25
2019-03-17T09:18:02.646Z,2.17
2019-03-17T09:20:32.217Z,1.00
2019-03-17T09:26:35.065Z,1.60
2019-03-17T09:29:49.307Z,1.00
2019-03-17T09:32:19.287Z,1.00
2019-03-17T09:35:22.578Z,1.20
2019-03-17T09:37:54.327Z,0.98
2019-03-17T09:40:27.934Z,0.80
2019-03-17T09:43:03.608Z,0.88
2019-03-17T09:45:39.684Z,1.25
2019-03-17T09:48:11.487Z,1.20
2019-03-17T09:50:43.439Z,0.85
2019-03-17T09:53:15.321Z,0.80
2019-03-17T10:08:09.598Z,1.80
2019-03-17T10:11:03.613Z,0.80
2019-03-17T10:13:34.316Z,0.70
2019-03-17T10:16:41.430Z,1.00
2019-03-17T10:19:55.893Z,1.35
2019-03-17T10:23:12.098Z,1.45
2019-03-17T10:45:18.670Z,1.05
2019-03-17T10:51:49.891Z,0.85
2019-03-17T10:54:44.249Z,0.60
2019-03-17T10:57:18.143Z,1.02
2019-03-17T11:10:52.791Z,0.93
2019-03-17T11:13:39.828Z,0.80
2019-03-17T11:16:16.191Z,1.35
2019-03-17T11:18:51.598Z,1.00
2019-03-17T11:24:17.102Z,1.35
2019-03-17T11:26:46.232Z,1.20
2019-03-17T11:29:15.743Z,1.35
2019-03-17T11:31:44.808Z,1.10
2019-03-17T11:34:14.204Z,2.10
2019-03-17T11:36:43.296Z,1.60
2019-03-17T11:39:12.546Z,1.22
2019-03-17T11:41:41.853Z,0.80
2019-03-17T11:44:13.902Z,1.17
2019-03-17T11:46:43.468Z,1.02
2019-03-17T11:49:14.337Z,0.80
2019-03-17T11:51:44.985Z,0.98
2019-03-17T11:54:14.330Z,1.00
2019-03-17T11:56:43.527Z,1.00
2019-03-17T11:59:13.091Z,1.20
2019-03-17T12:01:42.514Z,0.90
2019-03-17T12:04:12.507Z,1.10
2019-03-17T12:06:41.666Z,0.85
2019-03-17T12:09:10.803Z,0.82
2019-03-17T12:11:39.928Z,1.12
2019-03-17T12:14:09.965Z,1.10
2019-03-17T12:16:39.334Z,0.88
2019-03-17T12:19:08.542Z,1.05
2019-03-17T12:21:38.086Z,0.98
2019-03-17T12:24:08.992Z,0.90
2019-03-17T12:26:38.381Z,1.17
2019-03-17T12:29:07.771Z,1.15
2019-03-17T12:31:36.753Z,1.00
2019-03-17T12:34:11.015Z,0.53
2019-03-17T12:36:40.121Z,1.02
2019-03-17T12:39:09.588Z,1.15
2019-03-17T12:41:39.526Z,0.90
2019-03-17T12:44:08.529Z,0.90
2019-03-17T12:46:37.581Z,0.90
2019-03-17T12:49:06.717Z,0.70
2019-03-17T12:51:36.045Z,1.07
2019-03-17T12:54:05.298Z,0.82
2019-03-17T12:56:34.399Z,1.00
2019-03-17T12:59:03.470Z,0.90
2019-03-17T13:01:32.585Z,0.90
2019-03-17T13:04:02.829Z,1.10
2019-03-17T13:06:31.914Z,1.10
2019-03-17T13:09:01.486Z,1.10
2019-03-17T13:11:32.535Z,0.70
2019-03-17T13:14:02.282Z,0.68
2019-03-17T13:16:34.025Z,0.98
2019-03-17T13:19:03.032Z,0.80
2019-03-17T13:21:32.105Z,0.93
2019-03-17T13:24:01.254Z,0.95
2019-03-17T13:26:30.546Z,1.00
2019-03-17T13:29:00.184Z,0.90
2019-03-17T13:31:29.797Z,0.98
2019-03-17T13:33:59.346Z,0.80
2019-03-17T13:36:30.130Z,1.07
2019-03-17T13:39:04.948Z,0.95
2019-03-17T13:41:34.264Z,1.40
2019-03-17T13:44:03.477Z,0.90
2019-03-17T13:46:34.355Z,0.88
2019-03-17T13:49:17.439Z,0.80
2019-03-17T13:51:48.886Z,1.05
2019-03-17T13:57:51.951Z,1.25
2019-03-17T14:00:23.620Z,0.82
2019-03-17T14:02:53.398Z,0.90
2019-03-17T14:05:22.950Z,0.68
2019-03-17T14:07:52.025Z,0.78
2019-03-17T14:10:21.450Z,1.27
2019-03-17T14:12:51.353Z,0.75
2019-03-17T14:15:20.961Z,1.20
2019-03-17T14:17:50.513Z,1.25
2019-03-17T14:20:20.868Z,0.98
2019-03-17T14:22:50.656Z,1.20
2019-03-17T14:25:24.455Z,1.57
2019-03-17T14:27:56.535Z,1.10
2019-03-17T14:30:26.126Z,0.80
2019-03-17T14:32:56.593Z,1.32
2019-03-17T14:35:29.558Z,0.65
2019-03-17T14:37:58.806Z,0.78
2019-03-17T14:40:28.088Z,0.82
2019-03-17T14:42:57.460Z,1.07
2019-03-17T14:45:26.816Z,1.70
2019-03-17T14:47:56.690Z,0.78
2019-03-17T14:50:26.111Z,1.15
2019-03-17T14:52:55.193Z,0.80
2019-03-17T14:55:26.234Z,0.72
2019-03-17T14:57:55.315Z,0.93
2019-03-17T15:00:24.445Z,1.00
2019-03-17T15:02:53.416Z,1.12
2019-03-17T15:05:25.248Z,0.70
2019-03-17T15:07:53.784Z,1.20
2019-03-17T15:10:22.856Z,1.00
2019-03-17T15:12:52.446Z,0.95
2019-03-17T15:15:21.990Z,1.17
2019-03-17T15:17:51.057Z,1.12
2019-03-17T15:20:20.262Z,1.30
2019-03-17T15:22:49.445Z,0.80
2019-03-17T15:25:18.599Z,1.20
2019-03-17T15:27:47.669Z,1.32
2019-03-17T15:30:18.922Z,1.20
2019-03-17T15:32:48.575Z,0.90
2019-03-17T15:35:17.665Z,0.95
2019-03-17T15:37:46.941Z,0.78
2019-03-17T15:40:16.207Z,1.10
2019-03-17T15:42:45.730Z,1.00
2019-03-17T15:45:15.829Z,0.95
2019-03-17T15:47:44.917Z,1.12
2019-03-17T15:50:19.645Z,0.93
2019-03-17T15:52:48.802Z,1.35
2019-03-17T15:55:18.085Z,1.00
2019-03-17T15:57:47.153Z,0.98
2019-03-17T16:00:24.624Z,1.20
2019-03-17T16:02:48.821Z,0.80
2019-03-17T16:05:18.621Z,1.10
2019-03-17T16:07:49.500Z,1.57
2019-03-17T16:10:19.518Z,0.93
2019-03-17T16:12:48.657Z,1.00
2019-03-17T16:15:19.257Z,1.10
2019-03-17T16:18:06.381Z,1.05
2019-03-17T16:20:35.709Z,1.15
2019-03-17T16:23:05.043Z,1.12
2019-03-17T16:25:34.241Z,1.20
2019-03-17T16:28:03.401Z,0.78
2019-03-17T16:30:35.163Z,1.02
2019-03-17T16:33:04.893Z,1.72
2019-03-17T16:35:34.169Z,1.17
2019-03-17T16:38:41.977Z,0.90
2019-03-17T16:41:16.467Z,1.07
2019-03-17T16:43:48.723Z,1.20
2019-03-17T16:53:43.000Z,0.90
2019-03-17T16:59:43.630Z,0.68
2019-03-17T17:02:19.850Z,0.70
2019-03-17T17:05:35.396Z,0.72
2019-03-17T17:08:09.677Z,0.75
2019-03-17T17:10:50.586Z,1.40
2019-03-17T17:13:23.417Z,1.00
2019-03-17T17:16:05.347Z,1.07
2019-03-17T17:18:37.005Z,1.40
2019-03-17T18:37:44.496Z,1.80
2019-03-17T18:47:35.245Z,2.10
2019-03-17T18:49:46.258Z,1.05
2019-03-17T18:52:22.537Z,1.10
2019-03-17T18:58:34.331Z,1.30
2019-03-17T19:01:05.119Z,2.02
2019-03-17T19:03:35.806Z,0.90
2019-03-17T19:06:05.187Z,0.70
2019-03-17T19:08:34.373Z,0.53
2019-03-17T19:11:03.676Z,0.95
2019-03-17T19:13:44.772Z,0.70
2019-03-17T19:16:14.298Z,0.72
2019-03-17T19:19:09.392Z,0.60
2019-03-17T19:21:47.550Z,0.70
2019-03-17T19:24:28.413Z,1.10
2019-03-17T19:36:26.022Z,1.10
2019-03-17T19:39:06.731Z,1.60
2019-03-17T19:55:15.534Z,2.65
2019-03-17T19:57:44.792Z,1.72
2019-03-17T20:00:15.206Z,1.47
2019-03-17T20:02:47.011Z,1.75
2019-03-17T20:05:15.526Z,2.10
2019-03-17T20:07:44.673Z,1.45
2019-03-17T20:10:16.117Z,1.60
2019-03-17T20:12:45.378Z,1.75
2019-03-17T20:15:14.583Z,1.30
2019-03-17T20:17:43.955Z,1.47
2019-03-17T20:20:13.348Z,1.17
2019-03-17T20:22:45.584Z,1.50
2019-03-17T20:25:18.338Z,1.60
2019-03-17T20:27:50.786Z,1.10
2019-03-17T20:30:20.136Z,1.50
2019-03-17T20:32:49.239Z,1.35
2019-03-17T20:35:21.430Z,1.42
2019-03-17T20:37:53.977Z,1.20
2019-03-17T20:40:41.992Z,1.47
2019-03-17T20:49:07.396Z,1.15
2019-03-17T20:51:39.407Z,1.10
2019-03-17T20:54:08.928Z,2.08
2019-03-17T20:56:40.614Z,1.70
2019-03-17T20:59:09.980Z,1.80
2019-03-17T21:01:39.538Z,1.22
2019-03-17T21:04:17.617Z,1.60
2019-03-17T21:06:47.973Z,1.77
2019-03-17T21:09:17.275Z,2.10
2019-03-17T21:11:46.709Z,1.42
2019-03-17T23:03:11.080Z,1.67
2019-03-17T23:05:52.065Z,1.55
2019-03-17T23:08:52.641Z,1.05
2019-03-17T23:11:56.416Z,1.47
2019-03-17T23:14:21.439Z,1.40
2019-03-17T23:16:52.272Z,1.30
2019-03-17T23:35:31.708Z,1.30
2019-03-17T23:38:03.429Z,2.37
2019-03-17T23:40:32.629Z,1.27
2019-03-17T23:43:01.726Z,1.52
2019-03-17T23:45:37.352Z,1.27
2019-03-17T23:48:06.496Z,2.40
2019-03-17T23:50:35.616Z,1.22
2019-03-17T23:53:04.658Z,1.60
2019-03-17T23:55:33.675Z,1.92
2019-03-17T23:58:02.745Z,1.35
